sensor_id;sensor_type;location;lat;lon;timestamp;P1;durP1;ratioP1;P2;durP2;ratioP2
74995;SDS011;63545;51.690;5.202;2023-09-19T00:02:16;30.00;;;4.03;;
74995;SDS011;63545;51.690;5.202;2023-09-19T00:04:42;23.23;;;3.88;;
74995;SDS011;63545;51.690;5.202;2023-09-19T00:07:08;34.58;;;4.30;;
74995;SDS011;63545;51.690;5.202;2023-09-19T00:09:34;21.33;;;3.50;;
74995;SDS011;63545;51.690;5.202;2023-09-19T00:12:04;25.77;;;3.58;;
74995;SDS011;63545;51.690;5.202;2023-09-19T00:14:34;29.55;;;4.15;;
74995;SDS011;63545;51.690;5.202;2023-09-19T00:17:00;30.58;;;3.88;;
74995;SDS011;63545;51.690;5.202;2023-09-19T00:19:30;26.30;;;3.45;;
74995;SDS011;63545;51.690;5.202;2023-09-19T00:21:58;32.67;;;4.00;;
74995;SDS011;63545;51.690;5.202;2023-09-19T00:24:23;25.92;;;3.60;;
74995;SDS011;63545;51.690;5.202;2023-09-19T00:26:49;25.87;;;3.80;;
74995;SDS011;63545;51.690;5.202;2023-09-19T00:29:14;20.00;;;3.73;;
74995;SDS011;63545;51.690;5.202;2023-09-19T00:31:44;25.27;;;3.78;;
74995;SDS011;63545;51.690;5.202;2023-09-19T00:34:09;23.33;;;3.85;;
74995;SDS011;63545;51.690;5.202;2023-09-19T00:36:36;27.37;;;3.50;;
74995;SDS011;63545;51.690;5.202;2023-09-19T00:39:03;21.35;;;4.00;;
74995;SDS011;63545;51.690;5.202;2023-09-19T00:41:30;31.23;;;3.85;;
74995;SDS011;63545;51.690;5.202;2023-09-19T00:43:56;25.25;;;3.95;;
74995;SDS011;63545;51.690;5.202;2023-09-19T00:46:21;22.67;;;3.70;;
74995;SDS011;63545;51.690;5.202;2023-09-19T00:48:47;22.27;;;3.53;;
74995;SDS011;63545;51.690;5.202;2023-09-19T00:51:12;27.03;;;3.97;;
74995;SDS011;63545;51.690;5.202;2023-09-19T00:53:39;31.27;;;4.20;;
74995;SDS011;63545;51.690;5.202;2023-09-19T00:56:04;31.00;;;4.13;;
74995;SDS011;63545;51.690;5.202;2023-09-19T00:58:31;24.50;;;3.55;;
74995;SDS011;63545;51.690;5.202;2023-09-19T01:00:58;18.70;;;3.90;;
74995;SDS011;63545;51.690;5.202;2023-09-19T01:03:24;33.73;;;4.13;;
74995;SDS011;63545;51.690;5.202;2023-09-19T01:05:49;30.20;;;3.57;;
74995;SDS011;63545;51.690;5.202;2023-09-19T01:08:15;24.37;;;3.80;;
74995;SDS011;63545;51.690;5.202;2023-09-19T01:10:43;21.93;;;3.90;;
74995;SDS011;63545;51.690;5.202;2023-09-19T01:13:29;20.63;;;3.50;;
74995;SDS011;63545;51.690;5.202;2023-09-19T01:16:11;17.75;;;3.75;;
74995;SDS011;63545;51.690;5.202;2023-09-19T01:28:06;26.48;;;3.15;;
74995;SDS011;63545;51.690;5.202;2023-09-19T01:30:40;27.90;;;3.47;;
74995;SDS011;63545;51.690;5.202;2023-09-19T01:33:08;17.58;;;3.20;;
74995;SDS011;63545;51.690;5.202;2023-09-19T01:35:37;21.87;;;3.20;;
74995;SDS011;63545;51.690;5.202;2023-09-19T01:38:04;15.23;;;3.42;;
74995;SDS011;63545;51.690;5.202;2023-09-19T01:40:31;20.13;;;3.30;;
74995;SDS011;63545;51.690;5.202;2023-09-19T01:46:04;21.95;;;3.30;;
74995;SDS011;63545;51.690;5.202;2023-09-19T01:51:32;21.25;;;3.72;;
74995;SDS011;63545;51.690;5.202;2023-09-19T01:54:11;20.13;;;2.72;;
74995;SDS011;63545;51.690;5.202;2023-09-19T01:56:42;21.05;;;3.40;;
74995;SDS011;63545;51.690;5.202;2023-09-19T01:59:24;20.35;;;3.00;;
74995;SDS011;63545;51.690;5.202;2023-09-19T02:01:52;17.00;;;3.03;;
74995;SDS011;63545;51.690;5.202;2023-09-19T02:04:18;17.63;;;3.33;;
74995;SDS011;63545;51.690;5.202;2023-09-19T02:06:43;22.13;;;3.83;;
74995;SDS011;63545;51.690;5.202;2023-09-19T02:09:12;15.43;;;3.03;;
74995;SDS011;63545;51.690;5.202;2023-09-19T02:11:39;24.27;;;2.75;;
74995;SDS011;63545;51.690;5.202;2023-09-19T02:14:04;15.67;;;3.40;;
74995;SDS011;63545;51.690;5.202;2023-09-19T02:16:33;22.75;;;3.47;;
74995;SDS011;63545;51.690;5.202;2023-09-19T02:18:59;15.20;;;2.97;;
74995;SDS011;63545;51.690;5.202;2023-09-19T02:21:25;19.52;;;2.72;;
74995;SDS011;63545;51.690;5.202;2023-09-19T02:23:50;18.83;;;2.93;;
74995;SDS011;63545;51.690;5.202;2023-09-19T02:26:16;23.58;;;3.22;;
74995;SDS011;63545;51.690;5.202;2023-09-19T02:28:43;23.75;;;3.47;;
74995;SDS011;63545;51.690;5.202;2023-09-19T02:31:10;18.83;;;3.13;;
74995;SDS011;63545;51.690;5.202;2023-09-19T02:33:36;17.87;;;2.93;;
74995;SDS011;63545;51.690;5.202;2023-09-19T02:36:02;22.50;;;3.22;;
74995;SDS011;63545;51.690;5.202;2023-09-19T02:38:30;15.63;;;3.30;;
74995;SDS011;63545;51.690;5.202;2023-09-19T02:40:55;20.17;;;3.20;;
74995;SDS011;63545;51.690;5.202;2023-09-19T02:43:21;21.50;;;2.78;;
74995;SDS011;63545;51.690;5.202;2023-09-19T02:45:47;21.00;;;2.87;;
74995;SDS011;63545;51.690;5.202;2023-09-19T02:48:14;20.58;;;2.67;;
74995;SDS011;63545;51.690;5.202;2023-09-19T02:50:40;19.67;;;2.70;;
74995;SDS011;63545;51.690;5.202;2023-09-19T02:53:05;14.13;;;2.70;;
74995;SDS011;63545;51.690;5.202;2023-09-19T02:55:31;15.07;;;2.73;;
74995;SDS011;63545;51.690;5.202;2023-09-19T02:57:57;10.68;;;2.45;;
74995;SDS011;63545;51.690;5.202;2023-09-19T03:00:23;17.87;;;3.00;;
74995;SDS011;63545;51.690;5.202;2023-09-19T03:02:49;17.00;;;2.97;;
74995;SDS011;63545;51.690;5.202;2023-09-19T03:05:16;14.45;;;2.70;;
74995;SDS011;63545;51.690;5.202;2023-09-19T03:07:43;15.77;;;2.70;;
74995;SDS011;63545;51.690;5.202;2023-09-19T03:10:08;16.60;;;2.70;;
74995;SDS011;63545;51.690;5.202;2023-09-19T03:12:34;19.13;;;2.70;;
74995;SDS011;63545;51.690;5.202;2023-09-19T03:14:59;14.10;;;2.72;;
74995;SDS011;63545;51.690;5.202;2023-09-19T03:17:25;18.43;;;2.60;;
74995;SDS011;63545;51.690;5.202;2023-09-19T03:19:50;16.67;;;2.70;;
74995;SDS011;63545;51.690;5.202;2023-09-19T03:22:19;15.48;;;2.38;;
74995;SDS011;63545;51.690;5.202;2023-09-19T03:24:44;16.58;;;2.40;;
74995;SDS011;63545;51.690;5.202;2023-09-19T03:27:11;13.87;;;2.87;;
74995;SDS011;63545;51.690;5.202;2023-09-19T03:29:39;12.73;;;2.58;;
74995;SDS011;63545;51.690;5.202;2023-09-19T03:32:04;14.85;;;2.63;;
74995;SDS011;63545;51.690;5.202;2023-09-19T03:34:30;15.93;;;2.77;;
74995;SDS011;63545;51.690;5.202;2023-09-19T03:36:55;10.87;;;2.20;;
74995;SDS011;63545;51.690;5.202;2023-09-19T03:39:20;13.40;;;2.67;;
74995;SDS011;63545;51.690;5.202;2023-09-19T03:41:46;13.27;;;2.70;;
74995;SDS011;63545;51.690;5.202;2023-09-19T03:44:11;14.60;;;2.10;;
74995;SDS011;63545;51.690;5.202;2023-09-19T03:46:36;12.90;;;2.25;;
74995;SDS011;63545;51.690;5.202;2023-09-19T03:49:02;14.43;;;2.27;;
74995;SDS011;63545;51.690;5.202;2023-09-19T03:51:28;14.67;;;2.37;;
74995;SDS011;63545;51.690;5.202;2023-09-19T03:53:53;14.20;;;2.30;;
74995;SDS011;63545;51.690;5.202;2023-09-19T03:56:18;15.68;;;2.72;;
74995;SDS011;63545;51.690;5.202;2023-09-19T03:58:44;12.57;;;2.20;;
74995;SDS011;63545;51.690;5.202;2023-09-19T04:01:09;18.00;;;2.67;;
74995;SDS011;63545;51.690;5.202;2023-09-19T04:03:35;14.70;;;2.50;;
74995;SDS011;63545;51.690;5.202;2023-09-19T04:06:11;8.38;;;2.03;;
74995;SDS011;63545;51.690;5.202;2023-09-19T04:08:37;16.88;;;2.60;;
74995;SDS011;63545;51.690;5.202;2023-09-19T04:11:03;13.60;;;2.33;;
74995;SDS011;63545;51.690;5.202;2023-09-19T04:13:28;14.57;;;2.87;;
74995;SDS011;63545;51.690;5.202;2023-09-19T04:15:54;16.70;;;3.08;;
74995;SDS011;63545;51.690;5.202;2023-09-19T04:18:20;16.80;;;2.63;;
74995;SDS011;63545;51.690;5.202;2023-09-19T04:20:49;15.77;;;2.78;;
74995;SDS011;63545;51.690;5.202;2023-09-19T04:23:15;11.95;;;2.55;;
74995;SDS011;63545;51.690;5.202;2023-09-19T04:25:40;21.73;;;2.70;;
74995;SDS011;63545;51.690;5.202;2023-09-19T04:28:06;14.02;;;2.70;;
74995;SDS011;63545;51.690;5.202;2023-09-19T04:30:31;19.80;;;3.40;;
74995;SDS011;63545;51.690;5.202;2023-09-19T04:32:57;16.17;;;2.23;;
74995;SDS011;63545;51.690;5.202;2023-09-19T04:35:22;13.57;;;2.83;;
74995;SDS011;63545;51.690;5.202;2023-09-19T04:37:47;18.07;;;2.67;;
74995;SDS011;63545;51.690;5.202;2023-09-19T04:40:13;15.93;;;2.77;;
74995;SDS011;63545;51.690;5.202;2023-09-19T04:42:42;10.43;;;2.47;;
74995;SDS011;63545;51.690;5.202;2023-09-19T04:45:08;14.27;;;2.58;;
74995;SDS011;63545;51.690;5.202;2023-09-19T04:47:35;18.48;;;2.70;;
74995;SDS011;63545;51.690;5.202;2023-09-19T04:50:03;15.60;;;2.53;;
74995;SDS011;63545;51.690;5.202;2023-09-19T04:52:30;15.63;;;2.50;;
74995;SDS011;63545;51.690;5.202;2023-09-19T04:54:56;19.08;;;3.10;;
74995;SDS011;63545;51.690;5.202;2023-09-19T04:57:22;23.90;;;2.55;;
74995;SDS011;63545;51.690;5.202;2023-09-19T04:59:47;19.70;;;2.83;;
74995;SDS011;63545;51.690;5.202;2023-09-19T05:02:13;13.07;;;2.60;;
74995;SDS011;63545;51.690;5.202;2023-09-19T05:04:38;17.23;;;2.35;;
74995;SDS011;63545;51.690;5.202;2023-09-19T05:07:04;17.13;;;2.50;;
74995;SDS011;63545;51.690;5.202;2023-09-19T05:09:29;15.33;;;2.40;;
74995;SDS011;63545;51.690;5.202;2023-09-19T05:11:55;15.27;;;2.40;;
74995;SDS011;63545;51.690;5.202;2023-09-19T05:14:21;18.20;;;2.75;;
74995;SDS011;63545;51.690;5.202;2023-09-19T05:16:47;19.20;;;2.42;;
74995;SDS011;63545;51.690;5.202;2023-09-19T05:19:13;16.47;;;2.60;;
74995;SDS011;63545;51.690;5.202;2023-09-19T05:21:38;14.40;;;2.50;;
74995;SDS011;63545;51.690;5.202;2023-09-19T05:24:06;21.98;;;2.97;;
74995;SDS011;63545;51.690;5.202;2023-09-19T05:26:35;15.17;;;2.30;;
74995;SDS011;63545;51.690;5.202;2023-09-19T05:29:00;11.63;;;2.33;;
74995;SDS011;63545;51.690;5.202;2023-09-19T05:31:27;15.15;;;2.65;;
74995;SDS011;63545;51.690;5.202;2023-09-19T05:33:52;22.20;;;2.57;;
74995;SDS011;63545;51.690;5.202;2023-09-19T05:36:20;19.55;;;2.70;;
74995;SDS011;63545;51.690;5.202;2023-09-19T05:38:45;18.90;;;2.40;;
74995;SDS011;63545;51.690;5.202;2023-09-19T05:41:13;13.43;;;2.58;;
74995;SDS011;63545;51.690;5.202;2023-09-19T05:43:40;14.98;;;2.60;;
74995;SDS011;63545;51.690;5.202;2023-09-19T05:46:06;14.80;;;2.90;;
74995;SDS011;63545;51.690;5.202;2023-09-19T05:48:33;12.05;;;2.17;;
74995;SDS011;63545;51.690;5.202;2023-09-19T05:50:58;19.00;;;2.63;;
74995;SDS011;63545;51.690;5.202;2023-09-19T05:53:25;18.42;;;2.50;;
74995;SDS011;63545;51.690;5.202;2023-09-19T05:55:51;12.90;;;2.17;;
74995;SDS011;63545;51.690;5.202;2023-09-19T05:58:18;13.45;;;2.60;;
74995;SDS011;63545;51.690;5.202;2023-09-19T06:00:45;16.55;;;2.55;;
74995;SDS011;63545;51.690;5.202;2023-09-19T06:03:12;14.65;;;2.83;;
74995;SDS011;63545;51.690;5.202;2023-09-19T06:05:38;16.30;;;2.80;;
74995;SDS011;63545;51.690;5.202;2023-09-19T06:08:04;17.07;;;2.30;;
74995;SDS011;63545;51.690;5.202;2023-09-19T06:10:32;17.40;;;2.38;;
74995;SDS011;63545;51.690;5.202;2023-09-19T06:12:59;11.85;;;2.65;;
74995;SDS011;63545;51.690;5.202;2023-09-19T06:15:24;15.03;;;2.30;;
74995;SDS011;63545;51.690;5.202;2023-09-19T06:17:51;18.90;;;2.88;;
74995;SDS011;63545;51.690;5.202;2023-09-19T06:20:20;19.92;;;3.28;;
74995;SDS011;63545;51.690;5.202;2023-09-19T06:22:47;18.10;;;2.60;;
74995;SDS011;63545;51.690;5.202;2023-09-19T06:25:13;17.80;;;2.65;;
74995;SDS011;63545;51.690;5.202;2023-09-19T06:27:51;21.90;;;2.90;;
74995;SDS011;63545;51.690;5.202;2023-09-19T06:30:18;22.65;;;3.22;;
74995;SDS011;63545;51.690;5.202;2023-09-19T06:32:44;12.27;;;2.88;;
74995;SDS011;63545;51.690;5.202;2023-09-19T06:35:10;25.00;;;2.93;;
74995;SDS011;63545;51.690;5.202;2023-09-19T06:37:39;14.05;;;2.65;;
74995;SDS011;63545;51.690;5.202;2023-09-19T06:40:09;16.42;;;2.78;;
74995;SDS011;63545;51.690;5.202;2023-09-19T06:42:41;20.08;;;3.20;;
74995;SDS011;63545;51.690;5.202;2023-09-19T06:45:11;21.00;;;3.00;;
74995;SDS011;63545;51.690;5.202;2023-09-19T06:47:38;16.63;;;2.65;;
74995;SDS011;63545;51.690;5.202;2023-09-19T06:50:04;25.02;;;3.20;;
74995;SDS011;63545;51.690;5.202;2023-09-19T06:52:31;17.75;;;3.10;;
74995;SDS011;63545;51.690;5.202;2023-09-19T06:54:57;18.67;;;2.80;;
74995;SDS011;63545;51.690;5.202;2023-09-19T06:57:23;19.17;;;2.78;;
74995;SDS011;63545;51.690;5.202;2023-09-19T06:59:49;20.95;;;3.00;;
74995;SDS011;63545;51.690;5.202;2023-09-19T07:02:15;16.57;;;3.10;;
74995;SDS011;63545;51.690;5.202;2023-09-19T07:04:40;19.87;;;3.07;;
74995;SDS011;63545;51.690;5.202;2023-09-19T07:07:06;18.83;;;2.80;;
74995;SDS011;63545;51.690;5.202;2023-09-19T07:09:33;17.80;;;2.55;;
74995;SDS011;63545;51.690;5.202;2023-09-19T07:11:59;21.88;;;2.85;;
74995;SDS011;63545;51.690;5.202;2023-09-19T07:14:25;20.27;;;2.60;;
74995;SDS011;63545;51.690;5.202;2023-09-19T07:16:51;18.30;;;3.08;;
74995;SDS011;63545;51.690;5.202;2023-09-19T07:19:17;18.83;;;2.97;;
74995;SDS011;63545;51.690;5.202;2023-09-19T07:21:42;17.80;;;3.30;;
74995;SDS011;63545;51.690;5.202;2023-09-19T07:24:08;16.60;;;2.57;;
74995;SDS011;63545;51.690;5.202;2023-09-19T07:26:33;21.90;;;3.20;;
74995;SDS011;63545;51.690;5.202;2023-09-19T07:28:59;14.32;;;2.70;;
74995;SDS011;63545;51.690;5.202;2023-09-19T07:31:24;15.00;;;2.80;;
74995;SDS011;63545;51.690;5.202;2023-09-19T07:33:50;21.87;;;2.90;;
74995;SDS011;63545;51.690;5.202;2023-09-19T07:36:15;21.70;;;3.13;;
74995;SDS011;63545;51.690;5.202;2023-09-19T07:38:41;14.27;;;2.40;;
74995;SDS011;63545;51.690;5.202;2023-09-19T07:41:07;17.30;;;2.83;;
74995;SDS011;63545;51.690;5.202;2023-09-19T07:43:34;18.52;;;2.80;;
74995;SDS011;63545;51.690;5.202;2023-09-19T07:46:06;18.73;;;3.20;;
74995;SDS011;63545;51.690;5.202;2023-09-19T07:48:34;21.15;;;3.25;;
74995;SDS011;63545;51.690;5.202;2023-09-19T07:51:07;21.13;;;2.53;;
74995;SDS011;63545;51.690;5.202;2023-09-19T07:53:33;15.05;;;2.30;;
74995;SDS011;63545;51.690;5.202;2023-09-19T07:56:06;16.67;;;2.78;;
74995;SDS011;63545;51.690;5.202;2023-09-19T07:58:32;17.37;;;2.73;;
74995;SDS011;63545;51.690;5.202;2023-09-19T08:01:02;18.63;;;2.95;;
74995;SDS011;63545;51.690;5.202;2023-09-19T08:03:28;23.77;;;3.97;;
74995;SDS011;63545;51.690;5.202;2023-09-19T08:05:55;19.10;;;2.80;;
74995;SDS011;63545;51.690;5.202;2023-09-19T08:08:22;17.83;;;2.80;;
74995;SDS011;63545;51.690;5.202;2023-09-19T08:10:52;21.13;;;3.10;;
74995;SDS011;63545;51.690;5.202;2023-09-19T08:13:23;16.55;;;3.00;;
74995;SDS011;63545;51.690;5.202;2023-09-19T08:15:49;21.48;;;3.60;;
74995;SDS011;63545;51.690;5.202;2023-09-19T08:18:16;20.40;;;2.83;;
74995;SDS011;63545;51.690;5.202;2023-09-19T08:20:42;15.88;;;2.53;;
74995;SDS011;63545;51.690;5.202;2023-09-19T08:23:07;12.43;;;2.30;;
74995;SDS011;63545;51.690;5.202;2023-09-19T08:25:33;18.38;;;2.72;;
74995;SDS011;63545;51.690;5.202;2023-09-19T08:27:59;15.38;;;2.80;;
74995;SDS011;63545;51.690;5.202;2023-09-19T08:30:28;10.07;;;2.15;;
74995;SDS011;63545;51.690;5.202;2023-09-19T08:32:58;14.52;;;2.65;;
74995;SDS011;63545;51.690;5.202;2023-09-19T08:35:25;17.90;;;2.93;;
74995;SDS011;63545;51.690;5.202;2023-09-19T08:37:50;16.63;;;2.08;;
74995;SDS011;63545;51.690;5.202;2023-09-19T08:40:16;13.30;;;2.90;;
74995;SDS011;63545;51.690;5.202;2023-09-19T08:45:19;16.55;;;2.45;;
74995;SDS011;63545;51.690;5.202;2023-09-19T08:51:03;18.83;;;2.70;;
74995;SDS011;63545;51.690;5.202;2023-09-19T08:54:35;18.10;;;2.70;;
74995;SDS011;63545;51.690;5.202;2023-09-19T08:56:32;13.00;;;2.22;;
74995;SDS011;63545;51.690;5.202;2023-09-19T08:59:03;18.27;;;2.75;;
74995;SDS011;63545;51.690;5.202;2023-09-19T09:01:37;15.38;;;2.67;;
74995;SDS011;63545;51.690;5.202;2023-09-19T09:04:07;17.33;;;2.90;;
74995;SDS011;63545;51.690;5.202;2023-09-19T09:06:34;15.65;;;2.75;;
74995;SDS011;63545;51.690;5.202;2023-09-19T09:09:01;15.10;;;2.80;;
74995;SDS011;63545;51.690;5.202;2023-09-19T09:11:26;13.73;;;2.90;;
74995;SDS011;63545;51.690;5.202;2023-09-19T09:13:53;22.27;;;3.30;;
74995;SDS011;63545;51.690;5.202;2023-09-19T09:16:18;14.23;;;2.77;;
74995;SDS011;63545;51.690;5.202;2023-09-19T09:18:44;17.25;;;3.10;;
74995;SDS011;63545;51.690;5.202;2023-09-19T09:21:10;17.10;;;2.63;;
74995;SDS011;63545;51.690;5.202;2023-09-19T09:23:36;15.35;;;2.75;;
74995;SDS011;63545;51.690;5.202;2023-09-19T09:26:01;14.50;;;2.57;;
74995;SDS011;63545;51.690;5.202;2023-09-19T09:28:31;21.20;;;3.17;;
74995;SDS011;63545;51.690;5.202;2023-09-19T09:30:58;19.52;;;2.90;;
74995;SDS011;63545;51.690;5.202;2023-09-19T09:33:24;16.38;;;2.80;;
74995;SDS011;63545;51.690;5.202;2023-09-19T09:35:57;17.37;;;3.00;;
74995;SDS011;63545;51.690;5.202;2023-09-19T09:38:29;14.15;;;2.63;;
74995;SDS011;63545;51.690;5.202;2023-09-19T09:40:59;18.58;;;3.08;;
74995;SDS011;63545;51.690;5.202;2023-09-19T09:43:32;14.37;;;2.50;;
74995;SDS011;63545;51.690;5.202;2023-09-19T09:46:08;15.32;;;2.95;;
74995;SDS011;63545;51.690;5.202;2023-09-19T09:48:47;18.15;;;2.60;;
74995;SDS011;63545;51.690;5.202;2023-09-19T09:51:36;12.75;;;2.47;;
74995;SDS011;63545;51.690;5.202;2023-09-19T09:54:11;16.55;;;2.92;;
74995;SDS011;63545;51.690;5.202;2023-09-19T09:56:51;15.47;;;2.60;;
74995;SDS011;63545;51.690;5.202;2023-09-19T09:59:46;15.88;;;2.42;;
74995;SDS011;63545;51.690;5.202;2023-09-19T10:02:13;10.23;;;2.20;;
74995;SDS011;63545;51.690;5.202;2023-09-19T10:04:45;18.75;;;3.10;;
74995;SDS011;63545;51.690;5.202;2023-09-19T10:07:27;17.17;;;2.70;;
74995;SDS011;63545;51.690;5.202;2023-09-19T10:10:01;20.03;;;2.50;;
74995;SDS011;63545;51.690;5.202;2023-09-19T10:12:47;12.13;;;2.40;;
74995;SDS011;63545;51.690;5.202;2023-09-19T10:15:14;13.13;;;2.35;;
74995;SDS011;63545;51.690;5.202;2023-09-19T10:17:44;14.35;;;2.55;;
74995;SDS011;63545;51.690;5.202;2023-09-19T10:20:12;12.02;;;2.90;;
74995;SDS011;63545;51.690;5.202;2023-09-19T10:22:59;12.90;;;2.50;;
74995;SDS011;63545;51.690;5.202;2023-09-19T10:25:25;11.05;;;2.60;;
74995;SDS011;63545;51.690;5.202;2023-09-19T10:27:53;18.90;;;2.78;;
74995;SDS011;63545;51.690;5.202;2023-09-19T10:30:20;11.68;;;2.15;;
74995;SDS011;63545;51.690;5.202;2023-09-19T10:32:47;11.25;;;2.75;;
74995;SDS011;63545;51.690;5.202;2023-09-19T10:35:21;10.17;;;2.60;;
74995;SDS011;63545;51.690;5.202;2023-09-19T10:37:48;13.63;;;2.50;;
74995;SDS011;63545;51.690;5.202;2023-09-19T10:40:15;10.63;;;2.47;;
74995;SDS011;63545;51.690;5.202;2023-09-19T10:42:42;13.10;;;2.25;;
74995;SDS011;63545;51.690;5.202;2023-09-19T10:45:07;7.93;;;1.87;;
74995;SDS011;63545;51.690;5.202;2023-09-19T10:47:38;10.25;;;2.35;;
74995;SDS011;63545;51.690;5.202;2023-09-19T10:50:03;14.27;;;2.63;;
74995;SDS011;63545;51.690;5.202;2023-09-19T10:52:31;10.65;;;2.30;;
74995;SDS011;63545;51.690;5.202;2023-09-19T10:54:59;16.38;;;2.70;;
74995;SDS011;63545;51.690;5.202;2023-09-19T10:57:26;10.32;;;2.05;;
74995;SDS011;63545;51.690;5.202;2023-09-19T11:05:43;15.25;;;2.28;;
74995;SDS011;63545;51.690;5.202;2023-09-19T11:08:30;13.10;;;2.05;;
74995;SDS011;63545;51.690;5.202;2023-09-19T11:10:57;13.55;;;2.47;;
74995;SDS011;63545;51.690;5.202;2023-09-19T11:13:28;13.17;;;2.57;;
74995;SDS011;63545;51.690;5.202;2023-09-19T11:21:47;9.32;;;1.90;;
74995;SDS011;63545;51.690;5.202;2023-09-19T11:26:49;7.70;;;1.67;;
74995;SDS011;63545;51.690;5.202;2023-09-19T11:29:25;8.40;;;1.83;;
74995;SDS011;63545;51.690;5.202;2023-09-19T11:31:54;9.00;;;1.90;;
74995;SDS011;63545;51.690;5.202;2023-09-19T11:39:50;8.65;;;1.50;;
74995;SDS011;63545;51.690;5.202;2023-09-19T11:42:45;8.05;;;1.70;;
74995;SDS011;63545;51.690;5.202;2023-09-19T11:48:12;8.45;;;2.08;;
74995;SDS011;63545;51.690;5.202;2023-09-19T11:50:40;8.27;;;1.80;;
74995;SDS011;63545;51.690;5.202;2023-09-19T11:53:09;5.85;;;1.13;;
74995;SDS011;63545;51.690;5.202;2023-09-19T11:55:38;7.50;;;1.73;;
74995;SDS011;63545;51.690;5.202;2023-09-19T11:58:03;7.60;;;1.63;;
74995;SDS011;63545;51.690;5.202;2023-09-19T12:00:31;6.93;;;1.60;;
74995;SDS011;63545;51.690;5.202;2023-09-19T12:02:58;11.27;;;2.20;;
74995;SDS011;63545;51.690;5.202;2023-09-19T12:05:36;7.72;;;1.55;;
74995;SDS011;63545;51.690;5.202;2023-09-19T12:08:03;7.82;;;1.55;;
74995;SDS011;63545;51.690;5.202;2023-09-19T12:10:32;6.55;;;1.60;;
74995;SDS011;63545;51.690;5.202;2023-09-19T12:12:57;3.77;;;1.30;;
74995;SDS011;63545;51.690;5.202;2023-09-19T12:15:25;7.65;;;1.73;;
74995;SDS011;63545;51.690;5.202;2023-09-19T12:17:59;9.73;;;1.58;;
74995;SDS011;63545;51.690;5.202;2023-09-19T12:20:25;9.43;;;1.50;;
74995;SDS011;63545;51.690;5.202;2023-09-19T12:22:50;5.63;;;1.50;;
74995;SDS011;63545;51.690;5.202;2023-09-19T12:25:16;8.73;;;1.80;;
74995;SDS011;63545;51.690;5.202;2023-09-19T12:27:49;6.88;;;1.75;;
74995;SDS011;63545;51.690;5.202;2023-09-19T12:30:18;6.23;;;1.50;;
74995;SDS011;63545;51.690;5.202;2023-09-19T12:32:44;6.30;;;1.45;;
74995;SDS011;63545;51.690;5.202;2023-09-19T12:35:26;9.50;;;1.70;;
74995;SDS011;63545;51.690;5.202;2023-09-19T12:38:02;9.68;;;1.50;;
74995;SDS011;63545;51.690;5.202;2023-09-19T12:40:28;6.03;;;1.52;;
74995;SDS011;63545;51.690;5.202;2023-09-19T12:42:57;6.93;;;1.50;;
74995;SDS011;63545;51.690;5.202;2023-09-19T12:45:24;6.05;;;1.40;;
74995;SDS011;63545;51.690;5.202;2023-09-19T12:53:28;5.93;;;1.23;;
74995;SDS011;63545;51.690;5.202;2023-09-19T12:56:00;5.00;;;1.10;;
74995;SDS011;63545;51.690;5.202;2023-09-19T12:58:26;4.03;;;1.40;;
74995;SDS011;63545;51.690;5.202;2023-09-19T13:00:51;5.40;;;1.33;;
74995;SDS011;63545;51.690;5.202;2023-09-19T13:05:59;4.82;;;1.30;;
74995;SDS011;63545;51.690;5.202;2023-09-19T13:09:07;8.05;;;1.40;;
74995;SDS011;63545;51.690;5.202;2023-09-19T13:11:35;6.43;;;1.40;;
74995;SDS011;63545;51.690;5.202;2023-09-19T13:19:34;5.53;;;1.30;;
74995;SDS011;63545;51.690;5.202;2023-09-19T13:25:05;4.45;;;1.10;;
74995;SDS011;63545;51.690;5.202;2023-09-19T13:27:33;6.35;;;1.30;;
74995;SDS011;63545;51.690;5.202;2023-09-19T13:29:58;5.57;;;0.97;;
74995;SDS011;63545;51.690;5.202;2023-09-19T13:32:24;5.53;;;1.30;;
74995;SDS011;63545;51.690;5.202;2023-09-19T13:34:49;5.20;;;1.20;;
74995;SDS011;63545;51.690;5.202;2023-09-19T13:37:16;3.88;;;1.27;;
74995;SDS011;63545;51.690;5.202;2023-09-19T13:39:43;7.38;;;1.40;;
74995;SDS011;63545;51.690;5.202;2023-09-19T13:42:12;3.10;;;1.13;;
74995;SDS011;63545;51.690;5.202;2023-09-19T13:44:41;4.40;;;1.40;;
74995;SDS011;63545;51.690;5.202;2023-09-19T13:47:07;8.25;;;1.20;;
74995;SDS011;63545;51.690;5.202;2023-09-19T13:49:38;6.07;;;1.40;;
74995;SDS011;63545;51.690;5.202;2023-09-19T13:52:03;6.80;;;1.60;;
74995;SDS011;63545;51.690;5.202;2023-09-19T13:54:30;5.78;;;1.38;;
74995;SDS011;63545;51.690;5.202;2023-09-19T13:56:56;4.20;;;1.25;;
74995;SDS011;63545;51.690;5.202;2023-09-19T13:59:21;10.07;;;1.60;;
74995;SDS011;63545;51.690;5.202;2023-09-19T14:01:48;4.45;;;1.35;;
74995;SDS011;63545;51.690;5.202;2023-09-19T14:04:15;4.60;;;1.20;;
74995;SDS011;63545;51.690;5.202;2023-09-19T14:06:43;4.68;;;1.25;;
74995;SDS011;63545;51.690;5.202;2023-09-19T14:09:10;5.22;;;1.23;;
74995;SDS011;63545;51.690;5.202;2023-09-19T14:11:36;5.23;;;1.20;;
74995;SDS011;63545;51.690;5.202;2023-09-19T14:14:02;6.38;;;1.55;;
74995;SDS011;63545;51.690;5.202;2023-09-19T14:16:30;9.27;;;1.43;;
74995;SDS011;63545;51.690;5.202;2023-09-19T14:18:56;7.38;;;1.63;;
74995;SDS011;63545;51.690;5.202;2023-09-19T14:21:22;5.20;;;1.30;;
74995;SDS011;63545;51.690;5.202;2023-09-19T14:23:48;10.67;;;1.70;;
74995;SDS011;63545;51.690;5.202;2023-09-19T14:26:14;4.13;;;1.52;;
74995;SDS011;63545;51.690;5.202;2023-09-19T14:28:41;4.45;;;1.55;;
74995;SDS011;63545;51.690;5.202;2023-09-19T14:31:07;9.60;;;1.63;;
74995;SDS011;63545;51.690;5.202;2023-09-19T14:33:33;6.80;;;1.65;;
74995;SDS011;63545;51.690;5.202;2023-09-19T14:36:02;9.57;;;1.60;;
74995;SDS011;63545;51.690;5.202;2023-09-19T14:38:31;11.70;;;1.83;;
74995;SDS011;63545;51.690;5.202;2023-09-19T14:40:59;5.28;;;1.55;;
74995;SDS011;63545;51.690;5.202;2023-09-19T14:43:27;5.55;;;1.60;;
74995;SDS011;63545;51.690;5.202;2023-09-19T14:45:55;6.47;;;1.70;;
74995;SDS011;63545;51.690;5.202;2023-09-19T14:48:22;5.55;;;1.70;;
74995;SDS011;63545;51.690;5.202;2023-09-19T14:50:50;7.32;;;1.90;;
74995;SDS011;63545;51.690;5.202;2023-09-19T14:53:16;5.35;;;1.60;;
74995;SDS011;63545;51.690;5.202;2023-09-19T14:55:41;6.50;;;1.70;;
74995;SDS011;63545;51.690;5.202;2023-09-19T14:58:09;5.60;;;1.67;;
74995;SDS011;63545;51.690;5.202;2023-09-19T15:00:35;6.10;;;1.67;;
74995;SDS011;63545;51.690;5.202;2023-09-19T15:03:00;5.03;;;1.60;;
74995;SDS011;63545;51.690;5.202;2023-09-19T15:05:27;6.87;;;2.10;;
74995;SDS011;63545;51.690;5.202;2023-09-19T15:07:54;7.20;;;1.70;;
74995;SDS011;63545;51.690;5.202;2023-09-19T15:10:20;7.75;;;1.77;;
74995;SDS011;63545;51.690;5.202;2023-09-19T15:12:47;6.90;;;1.90;;
74995;SDS011;63545;51.690;5.202;2023-09-19T15:15:13;4.43;;;1.60;;
74995;SDS011;63545;51.690;5.202;2023-09-19T15:17:38;7.40;;;2.00;;
74995;SDS011;63545;51.690;5.202;2023-09-19T15:20:04;8.97;;;1.87;;
74995;SDS011;63545;51.690;5.202;2023-09-19T15:22:32;5.90;;;1.70;;
74995;SDS011;63545;51.690;5.202;2023-09-19T15:24:59;8.35;;;2.17;;
74995;SDS011;63545;51.690;5.202;2023-09-19T15:27:25;8.30;;;1.85;;
74995;SDS011;63545;51.690;5.202;2023-09-19T15:29:50;6.13;;;1.50;;
74995;SDS011;63545;51.690;5.202;2023-09-19T15:32:16;5.57;;;1.53;;
74995;SDS011;63545;51.690;5.202;2023-09-19T15:34:41;6.35;;;1.65;;
74995;SDS011;63545;51.690;5.202;2023-09-19T15:37:07;6.00;;;1.97;;
74995;SDS011;63545;51.690;5.202;2023-09-19T15:39:32;8.50;;;1.80;;
74995;SDS011;63545;51.690;5.202;2023-09-19T15:42:02;4.43;;;1.52;;
74995;SDS011;63545;51.690;5.202;2023-09-19T15:44:27;6.03;;;1.70;;